Time;durP1;ratioP1;P1;durP2;ratioP2;P2;SDS_P1;SDS_P2;PMS_P1;PMS_P2;Temp;Humidity;BMP_temperature;BMP_pressure;BME280_temperature;BME280_humidity;BME280_pressure;Samples;Min_cycle;Max_cycle;Signal;HPM_P1;HPM_P2
2022/12/29 00:02:10;;;;;;;5.20;2.58;;;13.80;99.80;;;;;;5035972;28;20046;-71
2022/12/29 00:04:36;;;;;;;4.53;2.38;;;;;;;;;;5040860;28;20080;-70
2022/12/29 00:07:04;;;;;;;3.70;2.20;;;;;;;;;;5056321;28;20052;-70
2022/12/29 00:09:30;;;;;;;4.03;2.10;;;13.90;99.90;;;;;;5055701;28;20486;-71
2022/12/29 00:11:56;;;;;;;3.75;2.17;;;13.90;99.90;;;;;;5056132;28;20086;-69
2022/12/29 00:17:06;;;;;;;3.33;1.83;;;14.20;99.90;;;;;;5049889;28;20040;-69
2022/12/29 00:36:03;;;;;;;3.78;2.25;;;13.90;99.30;;;;;;5046486;28;20537;-71
2022/12/29 00:44:09;;;;;;;3.75;2.08;;;13.90;99.90;;;;;;5035416;28;20045;-71
2022/12/29 00:46:38;;;;;;;3.67;2.22;;;13.90;99.90;;;;;;5036147;28;20041;-71
2022/12/29 00:51:49;;;;;;;3.33;1.92;;;13.80;99.90;;;;;;5041646;28;20403;-69
2022/12/29 00:54:15;;;;;;;3.38;2.00;;;13.90;99.90;;;;;;5055277;28;20049;-69
2022/12/29 00:56:40;;;;;;;3.67;1.80;;;13.90;99.90;;;;;;5055198;28;20534;-69
2022/12/29 00:59:08;;;;;;;4.55;2.20;;;14.00;99.80;;;;;;5055082;28;20091;-69
2022/12/29 01:01:34;;;;;;;3.47;2.10;;;14.20;99.90;;;;;;5054167;28;20049;-69
2022/12/29 01:04:00;;;;;;;4.18;2.20;;;14.10;99.90;;;;;;5051389;28;20055;-69
2022/12/29 01:06:26;;;;;;;4.00;2.30;;;13.80;99.70;;;;;;5046555;28;20037;-69
2022/12/29 01:10:09;;;;;;;3.83;2.05;;;14.00;99.90;;;;;;5035198;28;20045;-71
2022/12/29 01:11:38;;;;;;;3.60;2.13;;;14.10;99.80;;;;;;5034895;28;20049;-70
2022/12/29 01:14:04;;;;;;;3.13;1.95;;;14.00;99.90;;;;;;5051291;28;20084;-70
2022/12/29 01:16:29;;;;;;;3.83;2.00;;;13.90;99.90;;;;;;5053702;28;20115;-70
2022/12/29 01:18:55;;;;;;;4.43;2.03;;;13.60;99.90;;;;;;5046219;28;20069;-69
2022/12/29 01:21:21;;;;;;;5.25;2.38;;;;;;;;;;5035535;28;20136;-69
2022/12/29 01:23:47;;;;;;;5.13;2.40;;;13.60;99.90;;;;;;5035000;28;20048;-69
2022/12/29 01:26:14;;;;;;;3.30;1.85;;;14.10;99.90;;;;;;5034830;28;20551;-70
2022/12/29 01:28:41;;;;;;;3.80;2.20;;;;;;;;;;5049984;28;20056;-72
2022/12/29 01:31:08;;;;;;;5.40;2.10;;;13.90;99.90;;;;;;5045417;28;20045;-69
2022/12/29 01:33:33;;;;;;;3.45;2.10;;;13.80;99.90;;;;;;5034719;28;20060;-72
2022/12/29 01:36:03;;;;;;;3.83;2.00;;;14.00;99.90;;;;;;5050781;28;20115;-71
2022/12/29 01:38:29;;;;;;;4.10;2.20;;;14.10;99.90;;;;;;5044176;28;20038;-68
2022/12/29 01:40:55;;;;;;;4.38;2.35;;;14.20;99.90;;;;;;5048153;28;20044;-69
2022/12/29 01:43:21;;;;;;;6.68;2.20;;;14.00;99.90;;;;;;5064377;28;20044;-66
2022/12/29 01:45:51;;;;;;;4.82;2.40;;;14.10;99.90;;;;;;5072230;28;20150;-69
2022/12/29 01:48:16;;;;;;;4.38;2.25;;;14.10;99.90;;;;;;5053453;28;20552;-69
2022/12/29 01:50:49;;;;;;;4.43;2.08;;;14.20;99.90;;;;;;5041568;28;20076;-70
2022/12/29 01:53:24;;;;;;;5.60;2.50;;;14.20;99.50;;;;;;5051899;28;20388;-67
2022/12/29 01:55:55;;;;;;;4.30;1.85;;;14.10;99.90;;;;;;5053838;28;20371;-67
2022/12/29 01:58:22;;;;;;;4.68;2.30;;;13.90;99.60;;;;;;5055238;28;20052;-70
2022/12/29 02:00:48;;;;;;;4.18;2.22;;;14.00;99.50;;;;;;5053389;28;20045;-66
2022/12/29 02:03:14;;;;;;;3.95;2.17;;;14.10;99.90;;;;;;5049115;28;20037;-70
2022/12/29 02:06:00;;;;;;;4.20;2.10;;;14.20;99.40;;;;;;5051127;28;20037;-69
2022/12/29 02:08:27;;;;;;;4.35;2.10;;;13.90;99.60;;;;;;5050952;28;20040;-69
2022/12/29 02:10:53;;;;;;;3.53;1.95;;;14.10;99.90;;;;;;5068757;28;20051;-67
2022/12/29 02:13:19;;;;;;;4.40;2.40;;;14.20;99.70;;;;;;5051524;28;20044;-68
2022/12/29 02:16:18;;;;;;;4.32;2.33;;;14.00;98.90;;;;;;5061152;28;20049;-70
2022/12/29 02:18:48;;;;;;;3.90;2.20;;;;;;;;;;5049578;28;20499;-69
2022/12/29 02:21:23;;;;;;;5.18;2.30;;;14.10;98.80;;;;;;5050470;28;20411;-71
2022/12/29 02:23:49;;;;;;;4.45;1.90;;;;;;;;;;5072445;28;20048;-71
2022/12/29 02:26:23;;;;;;;4.20;2.40;;;14.10;99.90;;;;;;5073944;28;20059;-69
2022/12/29 02:29:07;;;;;;;4.65;2.13;;;;;;;;;;5061218;28;20499;-69
2022/12/29 02:31:42;;;;;;;4.65;2.38;;;;;;;;;;5049697;28;20520;-72
2022/12/29 02:34:48;;;;;;;3.95;2.00;;;13.90;99.60;;;;;;5057472;28;20093;-66
2022/12/29 02:37:23;;;;;;;6.05;2.45;;;14.30;99.90;;;;;;5001533;28;20046;-67
2022/12/29 02:40:01;;;;;;;3.60;2.00;;;14.10;99.90;;;;;;5011859;28;20053;-70
2022/12/29 02:43:11;;;;;;;4.00;2.00;;;14.20;99.70;;;;;;5004560;28;20128;-71
2022/12/29 02:45:45;;;;;;;4.50;2.20;;;14.20;99.90;;;;;;4996757;28;20045;-69
2022/12/29 02:48:14;;;;;;;3.65;2.00;;;;;;;;;;4995678;28;20049;-72
2022/12/29 02:50:48;;;;;;;3.22;1.73;;;14.00;99.90;;;;;;5011363;28;20046;-70
2022/12/29 02:53:15;;;;;;;4.55;2.15;;;14.20;99.90;;;;;;4995014;28;20052;-69
2022/12/29 02:55:48;;;;;;;4.40;2.65;;;14.10;99.90;;;;;;4983297;28;20408;-69
2022/12/29 02:58:15;;;;;;;;;;;14.20;99.90;;;;;;5011424;28;20050;-68
2022/12/29 03:01:18;;;;;;;3.15;1.80;;;14.00;99.90;;;;;;5012161;28;19940;-68
2022/12/29 03:04:11;;;;;;;4.80;2.05;;;13.90;99.00;;;;;;4995023;28;20551;-68
2022/12/29 03:06:54;;;;;;;4.00;2.08;;;13.90;98.90;;;;;;5008788;28;20038;-68
2022/12/29 03:09:28;;;;;;;4.57;2.33;;;14.30;99.10;;;;;;4994233;28;20045;-69
2022/12/29 03:12:16;;;;;;;4.32;2.05;;;14.10;99.30;;;;;;5048370;28;20057;-67
2022/12/29 03:18:02;;;;;;;4.37;2.03;;;14.00;99.90;;;;;;5032304;28;20054;-66
2022/12/29 03:20:52;;;;;;;3.88;1.75;;;14.20;99.90;;;;;;5038151;28;20103;-69
2022/12/29 03:23:17;;;;;;;4.32;1.83;;;14.20;99.90;;;;;;5046720;28;20060;-68
2022/12/29 03:25:46;;;;;;;4.18;2.08;;;14.00;99.90;;;;;;5048625;28;20040;-69
2022/12/29 03:28:14;;;;;;;4.97;1.77;;;14.10;99.90;;;;;;5055147;28;20055;-68
2022/12/29 03:30:39;;;;;;;3.38;1.88;;;14.10;99.90;;;;;;5033430;28;20049;-68
2022/12/29 03:33:10;;;;;;;3.50;1.88;;;13.90;99.90;;;;;;5035867;28;20036;-69
2022/12/29 03:35:37;;;;;;;3.95;2.00;;;14.00;99.90;;;;;;5067369;28;20051;-69
2022/12/29 03:38:35;;;;;;;3.53;1.80;;;14.00;99.70;;;;;;5043349;28;20032;-63
2022/12/29 03:41:04;;;;;;;2.50;1.30;;;14.10;99.70;;;;;;5046108;28;20104;-69
2022/12/29 03:43:30;;;;;;;3.15;1.70;;;13.90;99.90;;;;;;5055528;28;20121;-66
2022/12/29 03:45:56;;;;;;;2.90;1.30;;;14.10;99.90;;;;;;5038184;28;20041;-69
2022/12/29 03:48:22;;;;;;;2.85;1.55;;;;;;;;;;5064846;28;20462;-66
2022/12/29 03:50:48;;;;;;;3.42;1.42;;;14.00;99.90;;;;;;5068833;28;20486;-70
2022/12/29 03:53:14;;;;;;;2.45;1.40;;;;;;;;;;5074266;28;20086;-60
2022/12/29 03:55:40;;;;;;;3.80;1.80;;;14.30;99.90;;;;;;5047969;28;20045;-69
2022/12/29 03:58:05;;;;;;;3.50;1.38;;;14.10;99.90;;;;;;5061947;28;20390;-69
2022/12/29 04:00:31;;;;;;;3.25;1.30;;;13.90;99.90;;;;;;5075075;28;20478;-64
2022/12/29 04:02:57;;;;;;;3.42;1.48;;;14.30;99.90;;;;;;5060099;28;20053;-69
2022/12/29 04:05:22;;;;;;;1.67;1.10;;;14.10;99.90;;;;;;5074984;28;20379;-61
2022/12/29 04:07:48;;;;;;;3.28;1.48;;;14.20;99.90;;;;;;5066778;28;20053;-70
2022/12/29 04:10:14;;;;;;;4.22;1.40;;;14.10;99.90;;;;;;5064501;28;20040;-70
2022/12/29 04:12:41;;;;;;;2.83;1.42;;;;;;;;;;5051105;28;20052;-71
2022/12/29 04:15:08;;;;;;;2.65;1.15;;;14.20;99.90;;;;;;5071031;28;20052;-70
2022/12/29 04:17:34;;;;;;;3.10;1.30;;;13.70;99.90;;;;;;5074925;28;20091;-69
2022/12/29 04:22:44;;;;;;;2.35;1.33;;;13.90;99.90;;;;;;5073305;28;20049;-68
2022/12/29 04:25:09;;;;;;;1.95;1.10;;;14.20;99.90;;;;;;5068128;28;20059;-69
2022/12/29 04:27:35;;;;;;;2.92;1.38;;;14.30;99.90;;;;;;5052590;28;20045;-72
2022/12/29 04:30:01;;;;;;;3.20;1.52;;;14.10;99.90;;;;;;5050982;28;20044;-68
2022/12/29 04:32:27;;;;;;;2.65;1.23;;;14.00;99.90;;;;;;5060209;28;20392;-70
2022/12/29 04:34:53;;;;;;;2.47;1.05;;;;;;;;;;5073123;28;20072;-62
2022/12/29 04:37:18;;;;;;;1.67;0.93;;;13.80;99.90;;;;;;5074786;28;20424;-69
2022/12/29 04:39:44;;;;;;;2.95;1.42;;;14.20;99.90;;;;;;5070508;28;20124;-69
2022/12/29 04:42:10;;;;;;;2.33;1.20;;;13.80;99.90;;;;;;5073402;28;20049;-70
2022/12/29 04:44:36;;;;;;;2.25;1.10;;;14.10;99.90;;;;;;5068285;28;20155;-68
2022/12/29 04:47:01;;;;;;;3.13;1.30;;;14.50;99.90;;;;;;5036703;28;20048;-65
2022/12/29 04:49:27;;;;;;;5.13;1.50;;;13.90;99.90;;;;;;5041612;28;20123;-70
2022/12/29 04:51:53;;;;;;;4.00;1.20;;;13.90;99.90;;;;;;5070273;28;20079;-66
2022/12/29 04:54:18;;;;;;;4.32;1.48;;;14.40;99.90;;;;;;5074274;28;20052;-64
2022/12/29 04:56:44;;;;;;;2.25;1.20;;;14.20;99.90;;;;;;5075443;28;20116;-65
2022/12/29 04:59:10;;;;;;;4.57;1.38;;;14.30;99.90;;;;;;5060574;28;20045;-68
2022/12/29 05:01:36;;;;;;;6.47;1.85;;;14.20;99.90;;;;;;5063881;28;20076;-66
2022/12/29 05:04:02;;;;;;;3.55;1.23;;;14.20;99.90;;;;;;5072073;28;20468;-69
2022/12/29 05:06:28;;;;;;;3.47;1.05;;;;;;;;;;5074074;28;20076;-70
2022/12/29 05:08:53;;;;;;;3.83;1.25;;;14.30;99.60;;;;;;5073861;28;20470;-66
2022/12/29 05:11:19;;;;;;;3.17;1.52;;;14.20;99.90;;;;;;5058867;28;20045;-63
2022/12/29 05:13:46;;;;;;;5.43;1.27;;;14.30;99.90;;;;;;5051817;28;20053;-61
2022/12/29 05:16:13;;;;;;;4.85;1.40;;;14.10;99.50;;;;;;5073235;28;20048;-65
2022/12/29 05:18:39;;;;;;;5.43;1.08;;;;;;;;;;5066043;28;20060;-66
2022/12/29 05:21:05;;;;;;;3.50;1.30;;;14.40;99.90;;;;;;5068073;28;20072;-71
2022/12/29 05:23:31;;;;;;;2.20;0.90;;;14.20;99.90;;;;;;5042202;28;20451;-71
2022/12/29 05:25:56;;;;;;;3.45;0.88;;;14.10;99.90;;;;;;5054804;28;20398;-71
2022/12/29 05:28:22;;;;;;;3.20;0.93;;;14.20;99.90;;;;;;5054252;28;20041;-71
2022/12/29 05:30:50;;;;;;;2.47;1.00;;;14.20;99.90;;;;;;5054809;28;20045;-70
2022/12/29 05:33:17;;;;;;;1.98;0.80;;;13.90;99.90;;;;;;5054744;28;20107;-71
2022/12/29 05:35:43;;;;;;;2.70;0.85;;;14.40;99.90;;;;;;5050935;28;20065;-63
2022/12/29 05:38:09;;;;;;;3.92;1.02;;;14.30;99.90;;;;;;5048181;28;20045;-68
2022/12/29 05:40:35;;;;;;;2.40;1.00;;;14.30;99.90;;;;;;5049634;28;20045;-69
2022/12/29 05:43:00;;;;;;;4.68;1.20;;;14.30;99.90;;;;;;5054530;28;20059;-64
2022/12/29 05:45:26;;;;;;;2.67;1.08;;;14.40;99.90;;;;;;5054257;28;20045;-67
2022/12/29 05:47:52;;;;;;;2.33;1.05;;;14.20;99.20;;;;;;5054368;28;20079;-67
2022/12/29 05:50:18;;;;;;;3.80;1.15;;;14.30;99.90;;;;;;5037214;28;20100;-66
2022/12/29 05:52:43;;;;;;;3.65;1.20;;;14.20;99.90;;;;;;5043030;28;20120;-72
2022/12/29 05:55:09;;;;;;;4.18;1.40;;;14.30;99.90;;;;;;5054883;28;20040;-67
2022/12/29 05:57:35;;;;;;;5.97;1.10;;;14.30;99.90;;;;;;5068721;28;20044;-66
2022/12/29 06:00:01;;;;;;;4.03;1.05;;;14.20;99.10;;;;;;5073147;28;20052;-68
2022/12/29 06:02:27;;;;;;;4.97;1.30;;;13.90;99.90;;;;;;5056865;28;20040;-65
2022/12/29 06:04:52;;;;;;;4.05;1.27;;;14.20;99.90;;;;;;5072898;28;20401;-64
2022/12/29 06:07:18;;;;;;;5.88;1.30;;;13.80;99.90;;;;;;5072634;28;20072;-61
2022/12/29 06:09:44;;;;;;;3.97;1.20;;;14.30;99.90;;;;;;5060091;28;20053;-69
2022/12/29 06:12:10;;;;;;;4.55;1.20;;;14.50;99.90;;;;;;5044952;28;20037;-65
2022/12/29 06:14:35;;;;;;;5.80;1.52;;;14.30;99.90;;;;;;5064874;28;20056;-69
2022/12/29 06:17:01;;;;;;;5.72;1.10;;;14.20;98.90;;;;;;5069076;28;20040;-71
2022/12/29 06:19:27;;;;;;;5.00;1.27;;;14.00;99.90;;;;;;5071874;28;20494;-71
2022/12/29 06:21:53;;;;;;;6.25;1.70;;;14.30;99.90;;;;;;5069243;28;20493;-70
2022/12/29 06:24:19;;;;;;;6.38;1.85;;;14.30;99.90;;;;;;5067731;28;20041;-70
2022/12/29 06:26:45;;;;;;;5.13;1.33;;;;;;;;;;5059401;28;20463;-71
2022/12/29 06:29:13;;;;;;;5.18;1.48;;;14.30;99.90;;;;;;5039387;28;20049;-70
2022/12/29 06:31:38;;;;;;;4.75;1.65;;;14.30;99.90;;;;;;5071434;28;20044;-71
2022/12/29 06:34:04;;;;;;;6.57;2.05;;;14.30;99.90;;;;;;5068603;28;20140;-72
2022/12/29 06:36:30;;;;;;;6.55;1.80;;;14.20;99.90;;;;;;5054651;28;20041;-70
2022/12/29 06:38:56;;;;;;;5.63;1.50;;;14.30;99.90;;;;;;5043176;28;20102;-71
2022/12/29 06:41:22;;;;;;;7.43;1.73;;;14.10;99.90;;;;;;5044155;28;20223;-70
2022/12/29 06:43:47;;;;;;;5.45;1.40;;;13.90;99.90;;;;;;5049014;28;20053;-70
2022/12/29 06:46:13;;;;;;;5.88;1.70;;;14.30;99.90;;;;;;5033210;28;20087;-71
2022/12/29 06:48:41;;;;;;;4.10;1.55;;;14.10;99.90;;;;;;5033528;28;20076;-70
2022/12/29 06:51:08;;;;;;;7.22;1.60;;;;;;;;;;5042335;28;20391;-72
2022/12/29 06:53:33;;;;;;;3.47;1.00;;;14.00;99.80;;;;;;5055105;28;20063;-70
2022/12/29 06:55:59;;;;;;;7.68;1.60;;;;;;;;;;5053516;28;20037;-70
2022/12/29 06:58:25;;;;;;;4.95;1.35;;;14.30;99.90;;;;;;5052070;28;20067;-62
2022/12/29 07:00:51;;;;;;;5.63;1.48;;;14.40;99.90;;;;;;5048018;28;20398;-65
2022/12/29 07:03:17;;;;;;;5.03;1.80;;;14.20;99.80;;;;;;5033607;28;20055;-69
2022/12/29 07:05:42;;;;;;;5.63;1.80;;;14.20;99.80;;;;;;5035997;28;20048;-61
2022/12/29 07:08:08;;;;;;;7.38;1.80;;;14.20;99.80;;;;;;5068327;28;20052;-67
2022/12/29 07:10:34;;;;;;;7.80;1.70;;;14.10;99.70;;;;;;5072171;28;20068;-69
2022/12/29 07:13:00;;;;;;;5.93;1.50;;;14.20;99.60;;;;;;5067698;28;20063;-69
2022/12/29 07:15:26;;;;;;;5.38;1.77;;;14.20;99.60;;;;;;5058061;28;20041;-61
2022/12/29 07:17:51;;;;;;;8.75;1.95;;;14.00;99.70;;;;;;5039005;28;20085;-70
2022/12/29 07:20:18;;;;;;;5.97;1.48;;;;;;;;;;5063877;28;20044;-69
2022/12/29 07:22:43;;;;;;;8.10;1.98;;;14.30;99.60;;;;;;5071249;28;20068;-68
2022/12/29 07:25:09;;;;;;;6.72;1.73;;;14.10;98.40;;;;;;5065455;28;20083;-61
2022/12/29 07:27:35;;;;;;;6.30;1.75;;;14.10;99.30;;;;;;5064974;28;22028;-67
2022/12/29 07:30:01;;;;;;;7.65;2.15;;;14.00;99.60;;;;;;5063533;28;20170;-70
2022/12/29 07:32:26;;;;;;;6.35;1.60;;;13.80;99.40;;;;;;5074838;28;20399;-70
2022/12/29 07:34:52;;;;;;;9.15;2.00;;;13.80;99.30;;;;;;5065538;28;20044;-70
2022/12/29 07:37:18;;;;;;;6.18;1.85;;;;;;;;;;5057084;28;20029;-64
2022/12/29 07:39:44;;;;;;;7.97;1.80;;;13.90;99.20;;;;;;5057404;28;20503;-63
2022/12/29 07:42:10;;;;;;;7.30;1.70;;;13.80;99.30;;;;;;5075341;28;20044;-67
2022/12/29 07:44:36;;;;;;;7.43;2.10;;;14.10;99.30;;;;;;5070441;28;20051;-63
2022/12/29 07:47:02;;;;;;;9.13;1.75;;;14.20;98.70;;;;;;5054144;28;20037;-69
2022/12/29 07:49:28;;;;;;;7.25;1.88;;;14.10;99.30;;;;;;5052485;28;20071;-71
2022/12/29 07:51:54;;;;;;;4.72;1.60;;;14.00;98.10;;;;;;5052297;28;20475;-71
2022/12/29 07:54:19;;;;;;;7.10;1.90;;;13.80;99.30;;;;;;5036579;28;20045;-69
2022/12/29 07:56:45;;;;;;;5.65;1.70;;;13.80;99.20;;;;;;5045925;28;20429;-71
2022/12/29 07:59:14;;;;;;;9.00;2.00;;;14.10;99.20;;;;;;5055275;28;20052;-71
2022/12/29 08:01:40;;;;;;;6.13;1.80;;;;;;;;;;5062921;28;20040;-66
2022/12/29 08:04:06;;;;;;;8.98;1.70;;;14.10;99.30;;;;;;5059007;28;20041;-63
2022/12/29 08:06:32;;;;;;;13.55;2.10;;;14.40;99.20;;;;;;5055086;28;20055;-71
2022/12/29 08:09:00;;;;;;;7.22;1.80;;;;;;;;;;5055790;28;20522;-69
2022/12/29 08:11:25;;;;;;;10.10;2.30;;;14.00;99.00;;;;;;5051328;28;20047;-69
2022/12/29 08:13:51;;;;;;;5.03;1.55;;;13.90;97.90;;;;;;5074901;28;20482;-63
2022/12/29 08:16:18;;;;;;;7.60;1.77;;;14.10;99.20;;;;;;5070228;28;20095;-66
2022/12/29 08:18:44;;;;;;;7.90;2.35;;;14.00;99.10;;;;;;5062499;28;20063;-68
2022/12/29 08:21:10;;;;;;;8.13;2.28;;;14.10;99.10;;;;;;5058061;28;20037;-67
2022/12/29 08:23:36;;;;;;;8.88;2.08;;;;;;;;;;5050461;28;20056;-65
2022/12/29 08:26:03;;;;;;;8.90;2.53;;;14.00;98.90;;;;;;5050456;28;20533;-61
2022/12/29 08:28:29;;;;;;;7.18;2.28;;;;;;;;;;5054742;28;20073;-69
2022/12/29 08:30:58;;;;;;;6.00;1.88;;;13.70;99.00;;;;;;5047771;28;20044;-71
2022/12/29 08:33:23;;;;;;;7.53;2.13;;;14.00;99.00;;;;;;5069774;28;20478;-72
2022/12/29 08:35:50;;;;;;;9.80;2.25;;;;;;;;;;5074911;28;20039;-71
2022/12/29 08:38:15;;;;;;;7.05;2.05;;;13.70;99.10;;;;;;5076441;28;20041;-68
2022/12/29 08:40:41;;;;;;;8.10;1.83;;;14.00;99.10;;;;;;5075764;28;20063;-71
2022/12/29 08:43:07;;;;;;;7.68;2.05;;;;;;;;;;5053886;28;20045;-69
2022/12/29 08:45:33;;;;;;;8.77;2.10;;;14.00;98.90;;;;;;5052152;28;20048;-69
2022/12/29 08:47:59;;;;;;;7.72;2.10;;;;;;;;;;5053023;28;20041;-69
2022/12/29 08:50:25;;;;;;;7.82;1.95;;;13.90;98.90;;;;;;5052571;28;20052;-65
2022/12/29 08:52:51;;;;;;;9.90;2.00;;;14.00;98.90;;;;;;5055976;28;20048;-69
2022/12/29 08:55:17;;;;;;;7.22;2.70;;;14.20;98.80;;;;;;5073362;28;20040;-69
2022/12/29 08:57:42;;;;;;;9.20;2.47;;;14.10;98.80;;;;;;5050334;28;20041;-69
2022/12/29 09:00:09;;;;;;;9.88;2.50;;;14.00;98.80;;;;;;5047923;28;20099;-63
2022/12/29 09:02:35;;;;;;;8.40;2.35;;;13.70;98.60;;;;;;5049725;28;20047;-69
2022/12/29 09:05:01;;;;;;;7.80;1.55;;;14.10;97.60;;;;;;5055001;28;20057;-69
2022/12/29 09:07:26;;;;;;;8.10;2.30;;;14.00;98.80;;;;;;5065286;28;20098;-68
2022/12/29 09:09:52;;;;;;;10.35;2.33;;;14.00;98.70;;;;;;5054515;28;20045;-70
2022/12/29 09:12:18;;;;;;;9.30;2.08;;;13.90;98.70;;;;;;5052497;28;20548;-68
2022/12/29 09:14:46;;;;;;;10.52;2.63;;;14.20;98.80;;;;;;5052235;28;20491;-69
2022/12/29 09:19:57;;;;;;;11.10;2.35;;;14.10;97.40;;;;;;5052442;28;20416;-63
2022/12/29 09:22:23;;;;;;;12.75;2.40;;;14.00;98.70;;;;;;5052649;28;20438;-68
2022/12/29 09:24:49;;;;;;;10.35;2.47;;;14.20;98.70;;;;;;5065660;28;20045;-71
2022/12/29 09:27:15;;;;;;;9.25;2.38;;;14.00;98.60;;;;;;5054214;28;20040;-71
2022/12/29 09:29:40;;;;;;;10.55;2.58;;;13.60;98.50;;;;;;5052813;28;20045;-69
2022/12/29 09:32:07;;;;;;;12.52;2.58;;;14.10;97.50;;;;;;5052385;28;20075;-68
2022/12/29 09:34:33;;;;;;;8.07;2.15;;;14.10;98.70;;;;;;5055923;28;20052;-68
2022/12/29 09:36:58;;;;;;;8.60;2.15;;;14.00;98.60;;;;;;5063688;28;20074;-68
2022/12/29 09:39:24;;;;;;;9.40;1.98;;;13.90;98.50;;;;;;5058174;28;20051;-69
2022/12/29 09:42:05;;;;;;;9.43;2.38;;;14.10;96.70;;;;;;5069942;28;20368;-70
2022/12/29 09:45:02;;;;;;;11.88;2.70;;;14.20;97.40;;;;;;5064689;28;20051;-70
2022/12/29 09:47:28;;;;;;;8.80;2.40;;;14.10;98.60;;;;;;5069659;28;20089;-70
2022/12/29 09:50:01;;;;;;;11.32;2.33;;;14.10;97.20;;;;;;5069294;28;20049;-70
2022/12/29 09:52:32;;;;;;;8.98;2.20;;;;;;;;;;5055882;28;20049;-71
2022/12/29 09:55:04;;;;;;;9.15;2.20;;;14.20;96.60;;;;;;5052469;28;20045;-70
2022/12/29 09:57:34;;;;;;;11.68;2.85;;;13.90;97.20;;;;;;5043634;28;20047;-67
2022/12/29 10:00:05;;;;;;;9.40;2.00;;;14.10;97.10;;;;;;5055923;28;20051;-71
2022/12/29 10:02:53;;;;;;;8.10;2.20;;;14.30;97.10;;;;;;5047812;28;20048;-68
2022/12/29 10:05:46;;;;;;;7.05;1.95;;;14.30;97.30;;;;;;5049928;28;20041;-70
2022/12/29 10:08:12;;;;;;;;;;;;;;;;;;5045048;28;20037;-69
2022/12/29 10:10:40;;;;;;;10.45;2.40;;;14.10;98.50;;;;;;5051523;28;19920;-67
2022/12/29 10:13:25;;;;;;;10.13;2.42;;;14.10;96.70;;;;;;5041959;28;20045;-63
2022/12/29 10:16:05;;;;;;;11.07;2.95;;;14.30;96.60;;;;;;5051979;28;20106;-69
2022/12/29 10:18:45;;;;;;;7.93;2.38;;;14.20;98.50;;;;;;5045737;28;20049;-68
2022/12/29 10:21:23;;;;;;;10.60;2.15;;;14.20;97.10;;;;;;5033183;28;20509;-62
2022/12/29 10:23:51;;;;;;;10.23;2.33;;;14.20;98.40;;;;;;5033730;28;21556;-70
2022/12/29 10:26:21;;;;;;;7.57;2.25;;;;;;;;;;5038152;28;20459;-69
2022/12/29 10:28:53;;;;;;;7.75;1.90;;;14.20;98.40;;;;;;5050617;28;20052;-71
2022/12/29 10:31:22;;;;;;;8.07;2.00;;;14.20;98.40;;;;;;5059923;28;20048;-71
2022/12/29 10:33:56;;;;;;;9.45;2.38;;;14.20;98.40;;;;;;5053572;28;20045;-72
2022/12/29 10:36:34;;;;;;;10.85;1.80;;;14.20;97.00;;;;;;5034666;28;20037;-70
2022/12/29 10:39:19;;;;;;;8.30;2.00;;;13.80;97.10;;;;;;5047889;28;20510;-71
2022/12/29 10:42:06;;;;;;;6.78;1.80;;;;;;;;;;5035226;28;20402;-70
2022/12/29 10:44:31;;;;;;;7.72;2.08;;;14.20;98.30;;;;;;5014074;28;20064;-71
2022/12/29 10:47:06;;;;;;;10.93;2.83;;;14.20;96.50;;;;;;5034104;28;20107;-72
2022/12/29 10:49:37;;;;;;;7.95;1.73;;;;;;;;;;5039597;28;20126;-70
2022/12/29 10:52:03;;;;;;;6.07;2.00;;;14.30;98.40;;;;;;5049423;28;20442;-70
2022/12/29 10:54:38;;;;;;;6.65;1.85;;;14.10;97.00;;;;;;5053475;28;20051;-73
2022/12/29 10:57:08;;;;;;;10.90;2.28;;;13.90;98.30;;;;;;5045933;28;20048;-72
2022/12/29 10:59:35;;;;;;;6.70;1.50;;;14.20;98.50;;;;;;5042087;28;20056;-72
2022/12/29 11:02:10;;;;;;;7.20;1.73;;;14.30;96.60;;;;;;5050689;28;20033;-72
2022/12/29 11:05:04;;;;;;;7.22;1.98;;;14.20;96.60;;;;;;5058108;28;20371;-71
2022/12/29 11:07:30;;;;;;;5.72;1.77;;;14.30;98.40;;;;;;5053103;28;20122;-71
2022/12/29 11:10:15;;;;;;;6.85;2.00;;;14.50;98.60;;;;;;5057127;28;20107;-71
2022/12/29 11:12:41;;;;;;;8.38;2.30;;;14.40;98.60;;;;;;5048552;28;20143;-71
2022/12/29 11:15:09;;;;;;;6.65;2.20;;;14.20;98.50;;;;;;5042522;28;20088;-71
2022/12/29 11:17:50;;;;;;;8.90;1.95;;;14.30;96.60;;;;;;5034241;28;20403;-70
2022/12/29 11:20:29;;;;;;;5.90;2.10;;;14.10;96.50;;;;;;5065485;28;20049;-71
2022/12/29 11:22:55;;;;;;;8.40;2.10;;;14.50;98.60;;;;;;5063879;28;20130;-70
2022/12/29 11:25:20;;;;;;;6.82;2.10;;;14.30;98.50;;;;;;5072283;28;20121;-77
2022/12/29 11:28:16;;;;;;;4.50;1.90;;;14.30;97.30;;;;;;5076495;28;20147;-78
2022/12/29 11:30:42;;;;;;;6.40;1.90;;;14.40;98.50;;;;;;5052941;28;20515;-77
2022/12/29 11:33:08;;;;;;;7.47;1.80;;;;;;;;;;5057164;28;20053;-67
2022/12/29 11:35:39;;;;;;;8.15;1.60;;;;;;;;;;5056708;28;20394;-68
2022/12/29 11:38:05;;;;;;;7.90;1.88;;;14.50;98.40;;;;;;5066487;28;20040;-74
2022/12/29 11:40:31;;;;;;;5.05;1.90;;;14.70;98.50;;;;;;5077769;28;20397;-76
2022/12/29 11:42:58;;;;;;;6.20;1.92;;;14.60;98.40;;;;;;5068281;28;20083;-72
2022/12/29 11:45:26;;;;;;;6.35;1.90;;;14.80;98.30;;;;;;5050574;28;20116;-77
2022/12/29 11:47:57;;;;;;;7.05;2.15;;;14.80;96.80;;;;;;5056581;28;20053;-78
2022/12/29 11:50:29;;;;;;;6.30;1.73;;;14.80;98.10;;;;;;5054890;28;20086;-73
2022/12/29 11:53:18;;;;;;;7.60;1.80;;;14.80;96.80;;;;;;5054966;28;20041;-76
2022/12/29 11:56:16;;;;;;;10.70;2.30;;;14.70;96.90;;;;;;5052727;28;20486;-76
2022/12/29 11:58:42;;;;;;;9.68;2.00;;;15.10;96.90;;;;;;5064783;28;20044;-78
2022/12/29 12:01:19;;;;;;;7.03;1.92;;;15.20;98.10;;;;;;5061112;28;20535;-75
2022/12/29 12:04:05;;;;;;;6.97;1.80;;;15.20;96.10;;;;;;5056270;28;20052;-61
2022/12/29 12:06:32;;;;;;;7.32;2.10;;;;;;;;;;5046833;28;20049;-75
2022/12/29 12:09:03;;;;;;;8.55;2.33;;;15.40;97.90;;;;;;5055545;28;20037;-77
2022/12/29 12:11:37;;;;;;;9.10;1.83;;;15.40;97.90;;;;;;5052761;28;20037;-75
2022/12/29 12:14:20;;;;;;;7.90;1.98;;;15.50;96.50;;;;;;5047063;28;20168;-77
2022/12/29 12:17:15;;;;;;;7.72;1.98;;;15.80;96.00;;;;;;5044330;28;20514;-72
2022/12/29 12:19:47;;;;;;;8.55;2.08;;;15.70;96.60;;;;;;5058347;28;20045;-78
2022/12/29 12:22:50;;;;;;;9.70;2.17;;;15.40;96.40;;;;;;5053096;28;20041;-78
2022/12/29 12:25:21;;;;;;;8.13;2.05;;;15.60;97.60;;;;;;5015449;28;20049;-76
2022/12/29 12:28:13;;;;;;;9.57;2.40;;;15.50;97.60;;;;;;5051842;28;20045;-78
2022/12/29 12:30:41;;;;;;;8.75;2.17;;;;;;;;;;5034899;28;20343;-78
2022/12/29 12:33:41;;;;;;;8.88;2.53;;;15.30;96.20;;;;;;5043071;28;20049;-71
2022/12/29 12:36:28;;;;;;;11.55;3.38;;;15.50;96.20;;;;;;5008199;28;20212;-61
2022/12/29 12:39:17;;;;;;;11.48;2.63;;;15.40;95.50;;;;;;4997417;28;20057;-63
2022/12/29 12:42:20;;;;;;;8.25;1.77;;;15.10;97.30;;;;;;4996969;28;20062;-61
2022/12/29 12:44:49;;;;;;;13.80;2.30;;;15.10;97.30;;;;;;4997377;28;20065;-61
2022/12/29 12:47:34;;;;;;;15.88;3.28;;;15.40;96.20;;;;;;4993202;28;20049;-62
2022/12/29 12:50:26;;;;;;;10.80;2.42;;;15.60;97.50;;;;;;4993983;28;20041;-62
2022/12/29 12:52:58;;;;;;;9.88;2.80;;;15.60;95.50;;;;;;4977806;28;20093;-66
2022/12/29 12:55:52;;;;;;;11.02;2.45;;;15.40;97.30;;;;;;4983268;28;20047;-61
2022/12/29 12:58:30;;;;;;;11.75;3.00;;;15.40;97.30;;;;;;4958836;28;20059;-61
2022/12/29 13:01:21;;;;;;;10.82;2.50;;;15.40;95.30;;;;;;4974391;28;20093;-64
2022/12/29 13:04:08;;;;;;;9.73;2.20;;;15.10;96.00;;;;;;4974362;28;20043;-71
2022/12/29 13:06:51;;;;;;;11.13;2.45;;;15.50;97.40;;;;;;4974305;28;20046;-71
2022/12/29 13:09:31;;;;;;;10.35;2.53;;;15.20;97.30;;;;;;4974438;28;20061;-72
2022/12/29 13:12:12;;;;;;;6.55;1.85;;;15.20;97.30;;;;;;5003795;28;20058;-64
2022/12/29 13:15:01;;;;;;;9.00;2.30;;;;;;;;;;5037987;28;20045;-72
2022/12/29 13:17:32;;;;;;;8.85;2.50;;;15.40;97.30;;;;;;5046739;28;20063;-72
2022/12/29 13:20:36;;;;;;;8.95;2.10;;;15.20;95.40;;;;;;5047705;28;20402;-72
2022/12/29 13:23:16;;;;;;;9.35;2.38;;;15.30;96.00;;;;;;5034553;28;20109;-71
2022/12/29 13:25:49;;;;;;;9.85;2.35;;;15.00;95.90;;;;;;5049257;28;20056;-71
2022/12/29 13:28:31;;;;;;;8.02;2.47;;;15.30;95.40;;;;;;5035019;28;20045;-66
2022/12/29 13:31:16;;;;;;;9.27;2.60;;;;;;;;;;5049441;28;20487;-71
2022/12/29 13:33:49;;;;;;;9.43;2.67;;;15.10;97.10;;;;;;5034466;28;20046;-68
2022/12/29 13:36:22;;;;;;;9.82;2.17;;;;;;;;;;5034328;28;20455;-72
2022/12/29 13:38:50;;;;;;;7.43;2.00;;;15.50;97.10;;;;;;5034391;28;20045;-66
2022/12/29 13:41:21;;;;;;;8.13;2.50;;;15.40;97.10;;;;;;5033904;28;20045;-71
2022/12/29 13:43:47;;;;;;;7.93;2.08;;;15.40;97.10;;;;;;5034652;28;20034;-65
2022/12/29 13:46:22;;;;;;;8.63;1.77;;;15.40;97.10;;;;;;5033972;28;20046;-64
2022/12/29 13:49:00;;;;;;;9.27;2.42;;;15.10;96.90;;;;;;5037233;28;20041;-67
2022/12/29 13:51:25;;;;;;;8.77;2.03;;;15.30;97.00;;;;;;5049715;28;20056;-70
2022/12/29 13:53:54;;;;;;;6.22;1.63;;;;;;;;;;5032898;28;20053;-63
2022/12/29 13:56:32;;;;;;;7.32;1.77;;;15.20;97.00;;;;;;5034511;28;20053;-66